sensor_id;sensor_type;location;lat;lon;timestamp;P1;durP1;ratioP1;P2;durP2;ratioP2
59530;SDS011;45349;48.692;8.186;2023-10-08T00:00:59;8.97;;;3.10;;
59530;SDS011;45349;48.692;8.186;2023-10-08T00:03:56;9.03;;;2.60;;
59530;SDS011;45349;48.692;8.186;2023-10-08T00:06:50;7.37;;;2.73;;
59530;SDS011;45349;48.692;8.186;2023-10-08T00:09:42;9.60;;;2.47;;
59530;SDS011;45349;48.692;8.186;2023-10-08T00:12:35;6.80;;;2.80;;
59530;SDS011;45349;48.692;8.186;2023-10-08T00:15:27;8.33;;;3.03;;
59530;SDS011;45349;48.692;8.186;2023-10-08T00:18:24;7.43;;;3.20;;
59530;SDS011;45349;48.692;8.186;2023-10-08T00:21:15;8.03;;;2.63;;
59530;SDS011;45349;48.692;8.186;2023-10-08T00:24:07;5.87;;;2.60;;
59530;SDS011;45349;48.692;8.186;2023-10-08T00:26:59;6.57;;;2.67;;
59530;SDS011;45349;48.692;8.186;2023-10-08T00:29:53;6.33;;;2.50;;
59530;SDS011;45349;48.692;8.186;2023-10-08T00:32:46;8.37;;;2.87;;
59530;SDS011;45349;48.692;8.186;2023-10-08T00:35:40;8.13;;;2.60;;
59530;SDS011;45349;48.692;8.186;2023-10-08T00:38:32;8.50;;;2.50;;
59530;SDS011;45349;48.692;8.186;2023-10-08T00:41:26;7.77;;;2.47;;
59530;SDS011;45349;48.692;8.186;2023-10-08T00:44:20;8.80;;;2.20;;
59530;SDS011;45349;48.692;8.186;2023-10-08T00:47:19;5.83;;;2.60;;
59530;SDS011;45349;48.692;8.186;2023-10-08T00:50:16;7.90;;;2.57;;
59530;SDS011;45349;48.692;8.186;2023-10-08T00:53:13;6.83;;;2.67;;
59530;SDS011;45349;48.692;8.186;2023-10-08T00:56:11;10.50;;;2.83;;
59530;SDS011;45349;48.692;8.186;2023-10-08T00:59:04;7.70;;;2.43;;
59530;SDS011;45349;48.692;8.186;2023-10-08T01:01:57;7.60;;;2.90;;
59530;SDS011;45349;48.692;8.186;2023-10-08T01:04:55;7.93;;;2.60;;
59530;SDS011;45349;48.692;8.186;2023-10-08T01:07:47;6.60;;;3.10;;
59530;SDS011;45349;48.692;8.186;2023-10-08T01:10:17;7.23;;;2.63;;
59530;SDS011;45349;48.692;8.186;2023-10-08T01:12:46;4.80;;;2.40;;
59530;SDS011;45349;48.692;8.186;2023-10-08T01:15:29;6.17;;;2.43;;
59530;SDS011;45349;48.692;8.186;2023-10-08T01:18:00;8.47;;;2.80;;
59530;SDS011;45349;48.692;8.186;2023-10-08T01:20:30;6.33;;;2.80;;
59530;SDS011;45349;48.692;8.186;2023-10-08T01:23:03;7.30;;;2.70;;
59530;SDS011;45349;48.692;8.186;2023-10-08T01:25:35;6.53;;;3.00;;
59530;SDS011;45349;48.692;8.186;2023-10-08T01:28:04;6.90;;;2.73;;
59530;SDS011;45349;48.692;8.186;2023-10-08T01:30:39;5.33;;;2.80;;
59530;SDS011;45349;48.692;8.186;2023-10-08T01:33:07;7.23;;;2.60;;
59530;SDS011;45349;48.692;8.186;2023-10-08T01:35:38;6.43;;;2.73;;
59530;SDS011;45349;48.692;8.186;2023-10-08T01:38:07;8.13;;;3.23;;
59530;SDS011;45349;48.692;8.186;2023-10-08T01:40:38;9.97;;;2.20;;
59530;SDS011;45349;48.692;8.186;2023-10-08T01:43:06;12.07;;;3.27;;
59530;SDS011;45349;48.692;8.186;2023-10-08T01:45:35;7.83;;;2.60;;
59530;SDS011;45349;48.692;8.186;2023-10-08T01:48:05;6.67;;;3.00;;
59530;SDS011;45349;48.692;8.186;2023-10-08T01:50:34;9.53;;;2.63;;
59530;SDS011;45349;48.692;8.186;2023-10-08T01:53:01;7.03;;;2.67;;
59530;SDS011;45349;48.692;8.186;2023-10-08T01:55:57;6.20;;;2.70;;
59530;SDS011;45349;48.692;8.186;2023-10-08T01:58:29;8.87;;;3.00;;
59530;SDS011;45349;48.692;8.186;2023-10-08T02:00:56;8.07;;;2.63;;
59530;SDS011;45349;48.692;8.186;2023-10-08T02:03:25;6.70;;;2.53;;
59530;SDS011;45349;48.692;8.186;2023-10-08T02:06:03;6.73;;;2.90;;
59530;SDS011;45349;48.692;8.186;2023-10-08T02:08:34;8.57;;;2.90;;
59530;SDS011;45349;48.692;8.186;2023-10-08T02:11:03;7.63;;;2.70;;
59530;SDS011;45349;48.692;8.186;2023-10-08T02:13:29;5.40;;;2.53;;
59530;SDS011;45349;48.692;8.186;2023-10-08T02:15:56;6.13;;;2.10;;
59530;SDS011;45349;48.692;8.186;2023-10-08T02:18:23;6.20;;;2.60;;
59530;SDS011;45349;48.692;8.186;2023-10-08T02:20:50;7.23;;;2.60;;
59530;SDS011;45349;48.692;8.186;2023-10-08T02:23:17;7.93;;;3.03;;
59530;SDS011;45349;48.692;8.186;2023-10-08T02:25:44;6.73;;;2.93;;
59530;SDS011;45349;48.692;8.186;2023-10-08T02:28:12;5.90;;;2.60;;
59530;SDS011;45349;48.692;8.186;2023-10-08T02:30:40;5.47;;;2.37;;
59530;SDS011;45349;48.692;8.186;2023-10-08T02:33:07;8.23;;;2.67;;
59530;SDS011;45349;48.692;8.186;2023-10-08T02:35:40;8.27;;;2.67;;
59530;SDS011;45349;48.692;8.186;2023-10-08T02:38:09;7.03;;;2.97;;
59530;SDS011;45349;48.692;8.186;2023-10-08T02:40:37;11.17;;;3.37;;
59530;SDS011;45349;48.692;8.186;2023-10-08T02:43:09;7.60;;;2.87;;
59530;SDS011;45349;48.692;8.186;2023-10-08T02:45:38;5.93;;;2.77;;
59530;SDS011;45349;48.692;8.186;2023-10-08T02:48:06;5.20;;;2.70;;
59530;SDS011;45349;48.692;8.186;2023-10-08T02:50:37;8.43;;;3.37;;
59530;SDS011;45349;48.692;8.186;2023-10-08T02:53:05;6.73;;;2.63;;
59530;SDS011;45349;48.692;8.186;2023-10-08T02:55:36;5.60;;;2.60;;
59530;SDS011;45349;48.692;8.186;2023-10-08T02:58:07;6.53;;;2.67;;
59530;SDS011;45349;48.692;8.186;2023-10-08T03:00:37;7.23;;;3.13;;
59530;SDS011;45349;48.692;8.186;2023-10-08T03:03:06;8.37;;;2.83;;
59530;SDS011;45349;48.692;8.186;2023-10-08T03:05:40;6.70;;;3.27;;
59530;SDS011;45349;48.692;8.186;2023-10-08T03:08:09;6.20;;;2.77;;
59530;SDS011;45349;48.692;8.186;2023-10-08T03:10:37;6.03;;;2.60;;
59530;SDS011;45349;48.692;8.186;2023-10-08T03:13:03;5.67;;;2.70;;
59530;SDS011;45349;48.692;8.186;2023-10-08T03:15:31;7.83;;;2.90;;
59530;SDS011;45349;48.692;8.186;2023-10-08T03:18:13;7.80;;;2.50;;
59530;SDS011;45349;48.692;8.186;2023-10-08T03:20:40;6.00;;;2.63;;
59530;SDS011;45349;48.692;8.186;2023-10-08T03:23:11;6.37;;;2.90;;
59530;SDS011;45349;48.692;8.186;2023-10-08T03:25:50;6.37;;;2.60;;
59530;SDS011;45349;48.692;8.186;2023-10-08T03:28:22;6.73;;;2.60;;
59530;SDS011;45349;48.692;8.186;2023-10-08T03:33:23;6.93;;;2.97;;
59530;SDS011;45349;48.692;8.186;2023-10-08T03:35:52;5.67;;;2.77;;
59530;SDS011;45349;48.692;8.186;2023-10-08T03:38:20;9.30;;;2.97;;
59530;SDS011;45349;48.692;8.186;2023-10-08T03:40:54;5.37;;;2.43;;
59530;SDS011;45349;48.692;8.186;2023-10-08T03:43:29;10.73;;;3.23;;
59530;SDS011;45349;48.692;8.186;2023-10-08T03:46:08;6.13;;;2.93;;
59530;SDS011;45349;48.692;8.186;2023-10-08T03:48:42;8.03;;;2.83;;
59530;SDS011;45349;48.692;8.186;2023-10-08T03:51:10;7.80;;;2.50;;
59530;SDS011;45349;48.692;8.186;2023-10-08T03:53:38;8.90;;;2.90;;
59530;SDS011;45349;48.692;8.186;2023-10-08T03:56:23;5.10;;;2.63;;
59530;SDS011;45349;48.692;8.186;2023-10-08T03:58:51;9.20;;;2.63;;
59530;SDS011;45349;48.692;8.186;2023-10-08T04:01:20;10.13;;;2.97;;
59530;SDS011;45349;48.692;8.186;2023-10-08T04:03:50;8.20;;;2.73;;
59530;SDS011;45349;48.692;8.186;2023-10-08T04:06:26;5.83;;;2.20;;
59530;SDS011;45349;48.692;8.186;2023-10-08T04:09:03;4.40;;;2.10;;
59530;SDS011;45349;48.692;8.186;2023-10-08T04:11:49;6.37;;;2.57;;
59530;SDS011;45349;48.692;8.186;2023-10-08T04:14:21;7.07;;;2.80;;
59530;SDS011;45349;48.692;8.186;2023-10-08T04:16:49;8.23;;;2.73;;
59530;SDS011;45349;48.692;8.186;2023-10-08T04:19:19;6.23;;;2.60;;
59530;SDS011;45349;48.692;8.186;2023-10-08T04:21:50;11.67;;;2.60;;
59530;SDS011;45349;48.692;8.186;2023-10-08T04:24:20;9.43;;;2.50;;
59530;SDS011;45349;48.692;8.186;2023-10-08T04:26:53;5.33;;;2.30;;
59530;SDS011;45349;48.692;8.186;2023-10-08T04:29:22;6.93;;;2.67;;
59530;SDS011;45349;48.692;8.186;2023-10-08T04:31:49;6.03;;;2.60;;
59530;SDS011;45349;48.692;8.186;2023-10-08T04:34:28;7.67;;;3.00;;
59530;SDS011;45349;48.692;8.186;2023-10-08T04:36:55;7.70;;;2.47;;
59530;SDS011;45349;48.692;8.186;2023-10-08T04:39:26;6.33;;;2.40;;
59530;SDS011;45349;48.692;8.186;2023-10-08T04:41:57;8.00;;;2.60;;
59530;SDS011;45349;48.692;8.186;2023-10-08T04:44:25;7.63;;;2.50;;
59530;SDS011;45349;48.692;8.186;2023-10-08T04:46:57;7.40;;;2.80;;
59530;SDS011;45349;48.692;8.186;2023-10-08T04:49:31;5.67;;;2.60;;
59530;SDS011;45349;48.692;8.186;2023-10-08T04:52:00;7.27;;;2.17;;
59530;SDS011;45349;48.692;8.186;2023-10-08T04:54:33;6.40;;;2.50;;
59530;SDS011;45349;48.692;8.186;2023-10-08T04:57:05;5.90;;;2.27;;
59530;SDS011;45349;48.692;8.186;2023-10-08T04:59:40;7.63;;;2.20;;
59530;SDS011;45349;48.692;8.186;2023-10-08T05:02:08;5.93;;;2.63;;
59530;SDS011;45349;48.692;8.186;2023-10-08T05:04:46;7.47;;;3.07;;
59530;SDS011;45349;48.692;8.186;2023-10-08T05:07:32;5.73;;;2.50;;
59530;SDS011;45349;48.692;8.186;2023-10-08T05:10:15;6.00;;;2.70;;
59530;SDS011;45349;48.692;8.186;2023-10-08T05:13:09;5.27;;;2.67;;
59530;SDS011;45349;48.692;8.186;2023-10-08T05:15:42;5.70;;;2.80;;
59530;SDS011;45349;48.692;8.186;2023-10-08T05:18:27;5.03;;;2.67;;
59530;SDS011;45349;48.692;8.186;2023-10-08T05:21:13;8.83;;;2.73;;
59530;SDS011;45349;48.692;8.186;2023-10-08T05:23:50;5.93;;;2.60;;
59530;SDS011;45349;48.692;8.186;2023-10-08T05:26:34;8.50;;;2.87;;
59530;SDS011;45349;48.692;8.186;2023-10-08T05:29:11;5.13;;;2.40;;
59530;SDS011;45349;48.692;8.186;2023-10-08T05:31:54;6.57;;;2.27;;
59530;SDS011;45349;48.692;8.186;2023-10-08T05:34:46;6.07;;;2.47;;
59530;SDS011;45349;48.692;8.186;2023-10-08T05:37:36;7.97;;;2.50;;
59530;SDS011;45349;48.692;8.186;2023-10-08T05:40:08;8.57;;;2.60;;
59530;SDS011;45349;48.692;8.186;2023-10-08T05:42:46;5.23;;;2.40;;
59530;SDS011;45349;48.692;8.186;2023-10-08T05:45:16;7.10;;;2.33;;
59530;SDS011;45349;48.692;8.186;2023-10-08T05:47:55;6.67;;;2.60;;
59530;SDS011;45349;48.692;8.186;2023-10-08T05:50:40;5.33;;;2.40;;
59530;SDS011;45349;48.692;8.186;2023-10-08T05:53:20;7.07;;;2.67;;
59530;SDS011;45349;48.692;8.186;2023-10-08T05:56:06;6.43;;;2.83;;
59530;SDS011;45349;48.692;8.186;2023-10-08T05:58:52;5.63;;;2.50;;
59530;SDS011;45349;48.692;8.186;2023-10-08T06:01:41;8.43;;;2.43;;
59530;SDS011;45349;48.692;8.186;2023-10-08T06:04:07;5.87;;;2.13;;
59530;SDS011;45349;48.692;8.186;2023-10-08T06:07:07;5.50;;;2.60;;
59530;SDS011;45349;48.692;8.186;2023-10-08T06:09:37;6.77;;;2.43;;
59530;SDS011;45349;48.692;8.186;2023-10-08T06:12:05;4.37;;;2.53;;
59530;SDS011;45349;48.692;8.186;2023-10-08T06:14:36;8.00;;;2.37;;
59530;SDS011;45349;48.692;8.186;2023-10-08T06:17:19;10.67;;;2.80;;
59530;SDS011;45349;48.692;8.186;2023-10-08T06:20:00;6.33;;;2.53;;
59530;SDS011;45349;48.692;8.186;2023-10-08T06:22:35;5.93;;;2.13;;
59530;SDS011;45349;48.692;8.186;2023-10-08T06:25:01;4.20;;;2.10;;
59530;SDS011;45349;48.692;8.186;2023-10-08T06:27:48;7.57;;;2.60;;
59530;SDS011;45349;48.692;8.186;2023-10-08T06:30:19;3.97;;;2.20;;
59530;SDS011;45349;48.692;8.186;2023-10-08T06:32:47;5.63;;;2.67;;
59530;SDS011;45349;48.692;8.186;2023-10-08T06:35:15;6.73;;;2.23;;
59530;SDS011;45349;48.692;8.186;2023-10-08T06:37:44;4.70;;;2.00;;
59530;SDS011;45349;48.692;8.186;2023-10-08T06:40:11;9.07;;;2.50;;
59530;SDS011;45349;48.692;8.186;2023-10-08T06:42:58;6.97;;;2.10;;
59530;SDS011;45349;48.692;8.186;2023-10-08T06:45:29;7.53;;;2.40;;
59530;SDS011;45349;48.692;8.186;2023-10-08T06:47:59;7.83;;;2.40;;
59530;SDS011;45349;48.692;8.186;2023-10-08T06:50:31;9.60;;;2.50;;
59530;SDS011;45349;48.692;8.186;2023-10-08T06:53:01;4.40;;;2.27;;
59530;SDS011;45349;48.692;8.186;2023-10-08T06:55:32;7.60;;;2.23;;
59530;SDS011;45349;48.692;8.186;2023-10-08T06:58:00;9.77;;;2.40;;
59530;SDS011;45349;48.692;8.186;2023-10-08T07:00:30;6.30;;;2.60;;
59530;SDS011;45349;48.692;8.186;2023-10-08T07:03:13;6.57;;;2.40;;
59530;SDS011;45349;48.692;8.186;2023-10-08T07:05:41;6.17;;;2.40;;
59530;SDS011;45349;48.692;8.186;2023-10-08T07:08:10;8.73;;;2.83;;
59530;SDS011;45349;48.692;8.186;2023-10-08T07:10:40;4.20;;;2.20;;
59530;SDS011;45349;48.692;8.186;2023-10-08T07:13:11;9.00;;;2.53;;
59530;SDS011;45349;48.692;8.186;2023-10-08T07:15:42;8.43;;;2.43;;
59530;SDS011;45349;48.692;8.186;2023-10-08T07:18:10;8.83;;;3.23;;
59530;SDS011;45349;48.692;8.186;2023-10-08T07:20:40;9.07;;;3.00;;
59530;SDS011;45349;48.692;8.186;2023-10-08T07:23:19;5.00;;;2.53;;
59530;SDS011;45349;48.692;8.186;2023-10-08T07:25:52;6.80;;;3.07;;
59530;SDS011;45349;48.692;8.186;2023-10-08T07:28:23;6.13;;;2.60;;
59530;SDS011;45349;48.692;8.186;2023-10-08T07:30:51;8.37;;;2.63;;
59530;SDS011;45349;48.692;8.186;2023-10-08T07:33:18;7.00;;;2.83;;
59530;SDS011;45349;48.692;8.186;2023-10-08T07:35:46;5.50;;;2.90;;
59530;SDS011;45349;48.692;8.186;2023-10-08T07:38:20;5.33;;;2.47;;
59530;SDS011;45349;48.692;8.186;2023-10-08T07:40:47;8.47;;;3.30;;
59530;SDS011;45349;48.692;8.186;2023-10-08T07:43:15;6.93;;;2.70;;
59530;SDS011;45349;48.692;8.186;2023-10-08T07:45:45;8.03;;;2.80;;
59530;SDS011;45349;48.692;8.186;2023-10-08T07:48:15;6.90;;;3.53;;
59530;SDS011;45349;48.692;8.186;2023-10-08T07:50:43;7.43;;;3.30;;
59530;SDS011;45349;48.692;8.186;2023-10-08T07:53:13;7.93;;;4.13;;
59530;SDS011;45349;48.692;8.186;2023-10-08T07:55:47;11.83;;;4.73;;
59530;SDS011;45349;48.692;8.186;2023-10-08T07:58:22;7.43;;;4.27;;
59530;SDS011;45349;48.692;8.186;2023-10-08T08:00:49;9.60;;;4.07;;
59530;SDS011;45349;48.692;8.186;2023-10-08T08:03:20;10.23;;;4.00;;
59530;SDS011;45349;48.692;8.186;2023-10-08T08:05:57;10.17;;;4.60;;
59530;SDS011;45349;48.692;8.186;2023-10-08T08:08:33;12.07;;;3.73;;
59530;SDS011;45349;48.692;8.186;2023-10-08T08:11:04;16.27;;;4.27;;
59530;SDS011;45349;48.692;8.186;2023-10-08T08:13:33;10.03;;;4.60;;
59530;SDS011;45349;48.692;8.186;2023-10-08T08:16:00;12.80;;;4.00;;
59530;SDS011;45349;48.692;8.186;2023-10-08T08:18:36;6.50;;;3.50;;
59530;SDS011;45349;48.692;8.186;2023-10-08T08:21:03;8.43;;;3.50;;
59530;SDS011;45349;48.692;8.186;2023-10-08T08:23:30;9.00;;;3.63;;
59530;SDS011;45349;48.692;8.186;2023-10-08T08:25:59;10.57;;;4.47;;
59530;SDS011;45349;48.692;8.186;2023-10-08T08:28:51;9.87;;;3.73;;
59530;SDS011;45349;48.692;8.186;2023-10-08T08:31:20;7.97;;;3.93;;
59530;SDS011;45349;48.692;8.186;2023-10-08T08:33:47;6.00;;;3.23;;
59530;SDS011;45349;48.692;8.186;2023-10-08T08:36:19;10.37;;;3.67;;
59530;SDS011;45349;48.692;8.186;2023-10-08T08:38:46;8.97;;;4.03;;
59530;SDS011;45349;48.692;8.186;2023-10-08T08:41:15;9.07;;;3.83;;
59530;SDS011;45349;48.692;8.186;2023-10-08T08:43:44;10.53;;;3.83;;
59530;SDS011;45349;48.692;8.186;2023-10-08T08:46:14;9.17;;;4.07;;
59530;SDS011;45349;48.692;8.186;2023-10-08T08:48:41;8.93;;;3.97;;
59530;SDS011;45349;48.692;8.186;2023-10-08T08:51:09;8.90;;;4.00;;
59530;SDS011;45349;48.692;8.186;2023-10-08T08:53:37;7.87;;;3.83;;
59530;SDS011;45349;48.692;8.186;2023-10-08T08:56:05;8.33;;;4.17;;
59530;SDS011;45349;48.692;8.186;2023-10-08T08:58:35;6.93;;;3.23;;
59530;SDS011;45349;48.692;8.186;2023-10-08T09:01:05;6.90;;;3.47;;
59530;SDS011;45349;48.692;8.186;2023-10-08T09:03:34;7.73;;;3.80;;
59530;SDS011;45349;48.692;8.186;2023-10-08T09:06:02;7.93;;;3.30;;
59530;SDS011;45349;48.692;8.186;2023-10-08T09:08:33;8.60;;;3.80;;
59530;SDS011;45349;48.692;8.186;2023-10-08T09:11:00;8.80;;;3.57;;
59530;SDS011;45349;48.692;8.186;2023-10-08T09:13:29;5.97;;;3.40;;
59530;SDS011;45349;48.692;8.186;2023-10-08T09:16:00;6.43;;;3.40;;
59530;SDS011;45349;48.692;8.186;2023-10-08T09:18:30;8.37;;;3.40;;
59530;SDS011;45349;48.692;8.186;2023-10-08T09:21:06;6.50;;;3.17;;
59530;SDS011;45349;48.692;8.186;2023-10-08T09:23:38;8.50;;;3.47;;
59530;SDS011;45349;48.692;8.186;2023-10-08T09:26:08;9.17;;;3.30;;
59530;SDS011;45349;48.692;8.186;2023-10-08T09:28:35;6.17;;;3.10;;
59530;SDS011;45349;48.692;8.186;2023-10-08T09:31:05;8.27;;;2.97;;
59530;SDS011;45349;48.692;8.186;2023-10-08T09:33:32;5.03;;;2.60;;
59530;SDS011;45349;48.692;8.186;2023-10-08T09:35:58;6.13;;;3.00;;
59530;SDS011;45349;48.692;8.186;2023-10-08T09:38:29;9.47;;;3.00;;
59530;SDS011;45349;48.692;8.186;2023-10-08T09:40:57;7.90;;;3.27;;
59530;SDS011;45349;48.692;8.186;2023-10-08T09:43:27;7.40;;;3.27;;
59530;SDS011;45349;48.692;8.186;2023-10-08T09:45:54;8.20;;;2.90;;
59530;SDS011;45349;48.692;8.186;2023-10-08T09:48:27;8.00;;;3.30;;
59530;SDS011;45349;48.692;8.186;2023-10-08T09:50:57;7.70;;;2.80;;
59530;SDS011;45349;48.692;8.186;2023-10-08T09:53:25;7.40;;;3.20;;
59530;SDS011;45349;48.692;8.186;2023-10-08T09:56:11;8.87;;;3.70;;
59530;SDS011;45349;48.692;8.186;2023-10-08T09:58:40;8.57;;;3.23;;
59530;SDS011;45349;48.692;8.186;2023-10-08T10:01:08;8.23;;;3.20;;
59530;SDS011;45349;48.692;8.186;2023-10-08T10:03:37;6.93;;;3.53;;
59530;SDS011;45349;48.692;8.186;2023-10-08T10:06:11;9.63;;;3.30;;
59530;SDS011;45349;48.692;8.186;2023-10-08T10:08:40;8.70;;;3.83;;
59530;SDS011;45349;48.692;8.186;2023-10-08T10:11:08;7.60;;;2.90;;
59530;SDS011;45349;48.692;8.186;2023-10-08T10:13:38;8.23;;;3.63;;
59530;SDS011;45349;48.692;8.186;2023-10-08T10:16:06;8.93;;;3.40;;
59530;SDS011;45349;48.692;8.186;2023-10-08T10:18:33;10.77;;;3.73;;
59530;SDS011;45349;48.692;8.186;2023-10-08T10:23:52;11.10;;;3.13;;
59530;SDS011;45349;48.692;8.186;2023-10-08T10:26:24;7.67;;;3.60;;
59530;SDS011;45349;48.692;8.186;2023-10-08T10:31:51;10.37;;;3.67;;
59530;SDS011;45349;48.692;8.186;2023-10-08T10:34:19;9.73;;;4.00;;
59530;SDS011;45349;48.692;8.186;2023-10-08T10:36:50;10.30;;;3.80;;
59530;SDS011;45349;48.692;8.186;2023-10-08T10:39:23;11.37;;;3.53;;
59530;SDS011;45349;48.692;8.186;2023-10-08T10:41:56;9.10;;;3.90;;
59530;SDS011;45349;48.692;8.186;2023-10-08T10:44:26;9.00;;;3.60;;
59530;SDS011;45349;48.692;8.186;2023-10-08T10:46:54;10.57;;;4.03;;
59530;SDS011;45349;48.692;8.186;2023-10-08T10:49:36;7.90;;;3.20;;
59530;SDS011;45349;48.692;8.186;2023-10-08T10:52:14;10.00;;;3.50;;
59530;SDS011;45349;48.692;8.186;2023-10-08T10:54:51;8.00;;;3.40;;
59530;SDS011;45349;48.692;8.186;2023-10-08T10:57:24;7.20;;;3.57;;
59530;SDS011;45349;48.692;8.186;2023-10-08T11:00:01;12.57;;;3.17;;
59530;SDS011;45349;48.692;8.186;2023-10-08T11:02:52;14.10;;;3.57;;
59530;SDS011;45349;48.692;8.186;2023-10-08T11:05:21;8.97;;;3.37;;
59530;SDS011;45349;48.692;8.186;2023-10-08T11:07:55;7.03;;;2.97;;
59530;SDS011;45349;48.692;8.186;2023-10-08T11:10:30;8.47;;;3.33;;
59530;SDS011;45349;48.692;8.186;2023-10-08T11:12:57;12.47;;;3.40;;
59530;SDS011;45349;48.692;8.186;2023-10-08T11:15:26;8.33;;;3.07;;
59530;SDS011;45349;48.692;8.186;2023-10-08T11:18:06;9.60;;;2.80;;
59530;SDS011;45349;48.692;8.186;2023-10-08T11:20:34;8.27;;;3.00;;
59530;SDS011;45349;48.692;8.186;2023-10-08T11:23:06;9.70;;;3.67;;
59530;SDS011;45349;48.692;8.186;2023-10-08T11:25:52;10.50;;;3.00;;
59530;SDS011;45349;48.692;8.186;2023-10-08T11:28:19;9.27;;;3.63;;
59530;SDS011;45349;48.692;8.186;2023-10-08T11:30:47;7.47;;;3.10;;
59530;SDS011;45349;48.692;8.186;2023-10-08T11:33:17;5.83;;;3.40;;
59530;SDS011;45349;48.692;8.186;2023-10-08T11:35:54;7.23;;;3.03;;
59530;SDS011;45349;48.692;8.186;2023-10-08T11:38:25;11.40;;;3.40;;
59530;SDS011;45349;48.692;8.186;2023-10-08T11:40:53;9.00;;;3.17;;
59530;SDS011;45349;48.692;8.186;2023-10-08T11:43:22;9.70;;;3.77;;
59530;SDS011;45349;48.692;8.186;2023-10-08T11:45:49;10.07;;;3.10;;
59530;SDS011;45349;48.692;8.186;2023-10-08T11:48:16;11.40;;;3.77;;
59530;SDS011;45349;48.692;8.186;2023-10-08T11:50:51;7.43;;;3.93;;
59530;SDS011;45349;48.692;8.186;2023-10-08T11:53:17;6.67;;;3.77;;
59530;SDS011;45349;48.692;8.186;2023-10-08T11:55:46;6.20;;;3.43;;
59530;SDS011;45349;48.692;8.186;2023-10-08T11:58:14;6.90;;;3.70;;
59530;SDS011;45349;48.692;8.186;2023-10-08T12:00:45;7.60;;;3.43;;
59530;SDS011;45349;48.692;8.186;2023-10-08T12:03:17;11.07;;;3.77;;
59530;SDS011;45349;48.692;8.186;2023-10-08T12:05:44;12.23;;;3.80;;
59530;SDS011;45349;48.692;8.186;2023-10-08T12:08:13;8.17;;;3.80;;
59530;SDS011;45349;48.692;8.186;2023-10-08T12:10:41;12.10;;;3.63;;
59530;SDS011;45349;48.692;8.186;2023-10-08T12:13:12;11.57;;;4.10;;
59530;SDS011;45349;48.692;8.186;2023-10-08T12:15:39;6.90;;;3.60;;
59530;SDS011;45349;48.692;8.186;2023-10-08T12:18:07;8.87;;;3.90;;
59530;SDS011;45349;48.692;8.186;2023-10-08T12:20:40;10.97;;;4.17;;
59530;SDS011;45349;48.692;8.186;2023-10-08T12:23:10;11.40;;;3.90;;
59530;SDS011;45349;48.692;8.186;2023-10-08T12:25:44;9.00;;;3.97;;
59530;SDS011;45349;48.692;8.186;2023-10-08T12:28:17;8.70;;;3.80;;
59530;SDS011;45349;48.692;8.186;2023-10-08T12:30:45;8.37;;;3.53;;
59530;SDS011;45349;48.692;8.186;2023-10-08T12:33:11;10.47;;;3.73;;
59530;SDS011;45349;48.692;8.186;2023-10-08T12:35:41;12.80;;;4.50;;
59530;SDS011;45349;48.692;8.186;2023-10-08T12:38:09;6.83;;;3.70;;
59530;SDS011;45349;48.692;8.186;2023-10-08T12:40:36;9.40;;;3.63;;
59530;SDS011;45349;48.692;8.186;2023-10-08T12:43:13;11.90;;;3.43;;
59530;SDS011;45349;48.692;8.186;2023-10-08T12:45:45;9.07;;;3.40;;
59530;SDS011;45349;48.692;8.186;2023-10-08T12:48:20;8.60;;;3.43;;
59530;SDS011;45349;48.692;8.186;2023-10-08T12:50:47;9.57;;;3.90;;
59530;SDS011;45349;48.692;8.186;2023-10-08T12:53:19;8.73;;;3.83;;
59530;SDS011;45349;48.692;8.186;2023-10-08T12:55:49;9.50;;;3.50;;
59530;SDS011;45349;48.692;8.186;2023-10-08T12:58:18;9.03;;;3.70;;
59530;SDS011;45349;48.692;8.186;2023-10-08T13:00:50;10.63;;;4.30;;
59530;SDS011;45349;48.692;8.186;2023-10-08T13:03:22;11.67;;;3.83;;
59530;SDS011;45349;48.692;8.186;2023-10-08T13:05:49;9.43;;;3.77;;
59530;SDS011;45349;48.692;8.186;2023-10-08T13:08:18;8.37;;;3.73;;
59530;SDS011;45349;48.692;8.186;2023-10-08T13:10:45;8.43;;;3.83;;
59530;SDS011;45349;48.692;8.186;2023-10-08T13:13:11;10.17;;;3.70;;
59530;SDS011;45349;48.692;8.186;2023-10-08T13:15:38;7.93;;;3.37;;
59530;SDS011;45349;48.692;8.186;2023-10-08T13:18:09;12.33;;;4.00;;
59530;SDS011;45349;48.692;8.186;2023-10-08T13:20:36;9.20;;;4.13;;
59530;SDS011;45349;48.692;8.186;2023-10-08T13:23:05;10.60;;;3.90;;
59530;SDS011;45349;48.692;8.186;2023-10-08T13:25:32;7.70;;;3.50;;
59530;SDS011;45349;48.692;8.186;2023-10-08T13:28:04;12.17;;;4.03;;
59530;SDS011;45349;48.692;8.186;2023-10-08T13:30:32;12.77;;;3.83;;
59530;SDS011;45349;48.692;8.186;2023-10-08T13:32:59;10.97;;;3.97;;
59530;SDS011;45349;48.692;8.186;2023-10-08T13:35:27;8.77;;;3.53;;
59530;SDS011;45349;48.692;8.186;2023-10-08T13:37:53;10.20;;;4.33;;
59530;SDS011;45349;48.692;8.186;2023-10-08T13:40:21;12.13;;;4.17;;
59530;SDS011;45349;48.692;8.186;2023-10-08T13:42:57;11.67;;;3.73;;
59530;SDS011;45349;48.692;8.186;2023-10-08T13:45:24;16.23;;;4.07;;
59530;SDS011;45349;48.692;8.186;2023-10-08T13:47:54;13.07;;;4.63;;
59530;SDS011;45349;48.692;8.186;2023-10-08T13:50:21;17.97;;;4.73;;
59530;SDS011;45349;48.692;8.186;2023-10-08T13:52:50;11.20;;;4.30;;
59530;SDS011;45349;48.692;8.186;2023-10-08T13:55:18;13.77;;;4.23;;
59530;SDS011;45349;48.692;8.186;2023-10-08T13:57:44;11.93;;;4.13;;
59530;SDS011;45349;48.692;8.186;2023-10-08T14:00:13;13.17;;;4.40;;
59530;SDS011;45349;48.692;8.186;2023-10-08T14:02:42;12.37;;;4.20;;
59530;SDS011;45349;48.692;8.186;2023-10-08T14:05:09;13.23;;;4.20;;
59530;SDS011;45349;48.692;8.186;2023-10-08T14:07:40;17.77;;;4.17;;
59530;SDS011;45349;48.692;8.186;2023-10-08T14:10:11;12.10;;;4.00;;
59530;SDS011;45349;48.692;8.186;2023-10-08T14:12:44;17.00;;;4.70;;
59530;SDS011;45349;48.692;8.186;2023-10-08T14:15:15;13.17;;;4.07;;
59530;SDS011;45349;48.692;8.186;2023-10-08T14:17:43;19.37;;;4.50;;
59530;SDS011;45349;48.692;8.186;2023-10-08T14:20:13;13.07;;;4.67;;
59530;SDS011;45349;48.692;8.186;2023-10-08T14:22:46;17.47;;;4.40;;
59530;SDS011;45349;48.692;8.186;2023-10-08T14:25:18;16.63;;;5.20;;
59530;SDS011;45349;48.692;8.186;2023-10-08T14:27:50;15.57;;;5.40;;
59530;SDS011;45349;48.692;8.186;2023-10-08T14:30:18;14.53;;;3.97;;
59530;SDS011;45349;48.692;8.186;2023-10-08T14:32:46;16.33;;;4.37;;
59530;SDS011;45349;48.692;8.186;2023-10-08T14:35:13;22.90;;;4.40;;
59530;SDS011;45349;48.692;8.186;2023-10-08T14:37:57;14.30;;;4.00;;
59530;SDS011;45349;48.692;8.186;2023-10-08T14:40:44;15.53;;;4.50;;
59530;SDS011;45349;48.692;8.186;2023-10-08T14:43:28;15.47;;;4.80;;
59530;SDS011;45349;48.692;8.186;2023-10-08T14:45:59;13.70;;;4.47;;
59530;SDS011;45349;48.692;8.186;2023-10-08T14:48:29;13.73;;;4.33;;
59530;SDS011;45349;48.692;8.186;2023-10-08T14:51:00;15.83;;;4.27;;
59530;SDS011;45349;48.692;8.186;2023-10-08T14:53:27;14.20;;;4.10;;
59530;SDS011;45349;48.692;8.186;2023-10-08T14:55:56;20.23;;;4.67;;
59530;SDS011;45349;48.692;8.186;2023-10-08T14:58:23;13.97;;;4.40;;
59530;SDS011;45349;48.692;8.186;2023-10-08T15:00:51;12.23;;;4.10;;
59530;SDS011;45349;48.692;8.186;2023-10-08T15:03:19;15.77;;;4.60;;
59530;SDS011;45349;48.692;8.186;2023-10-08T15:05:46;16.10;;;4.80;;
59530;SDS011;45349;48.692;8.186;2023-10-08T15:08:12;19.90;;;5.00;;
59530;SDS011;45349;48.692;8.186;2023-10-08T15:10:40;16.50;;;4.40;;
59530;SDS011;45349;48.692;8.186;2023-10-08T15:13:08;21.27;;;4.87;;
59530;SDS011;45349;48.692;8.186;2023-10-08T15:15:36;13.50;;;4.80;;
59530;SDS011;45349;48.692;8.186;2023-10-08T15:18:05;17.47;;;4.83;;
59530;SDS011;45349;48.692;8.186;2023-10-08T15:20:32;20.07;;;5.57;;
59530;SDS011;45349;48.692;8.186;2023-10-08T15:23:00;11.43;;;4.77;;
59530;SDS011;45349;48.692;8.186;2023-10-08T15:25:26;20.77;;;5.27;;